sensor_id;sensor_type;location;lat;lon;timestamp;pressure;altitude;pressure_sealevel;temperature;humidity
22181;BME280;11256;50.830;12.834;2023-03-25T00:03:53;96619.09;;;10.27;65.58
22181;BME280;11256;50.830;12.834;2023-03-25T00:08:55;96611.16;;;10.31;65.92
22181;BME280;11256;50.830;12.834;2023-03-25T00:13:55;96596.13;;;10.25;65.99
22181;BME280;11256;50.830;12.834;2023-03-25T00:18:57;96605.03;;;10.25;66.02
22181;BME280;11256;50.830;12.834;2023-03-25T00:23:59;96607.56;;;10.22;65.71
22181;BME280;11256;50.830;12.834;2023-03-25T00:28:59;96604.97;;;10.17;65.65
22181;BME280;11256;50.830;12.834;2023-03-25T00:33:59;96601.56;;;10.11;66.19
22181;BME280;11256;50.830;12.834;2023-03-25T00:39:00;96598.16;;;10.06;65.75
22181;BME280;11256;50.830;12.834;2023-03-25T00:44:00;96582.22;;;10.04;65.96
22181;BME280;11256;50.830;12.834;2023-03-25T00:49:02;96594.06;;;10.08;66.49
22181;BME280;11256;50.830;12.834;2023-03-25T00:54:03;96576.59;;;10.01;65.78
22181;BME280;11256;50.830;12.834;2023-03-25T00:59:03;96588.94;;;10.07;66.35
22181;BME280;11256;50.830;12.834;2023-03-25T01:04:04;96562.38;;;9.95;66.17
22181;BME280;11256;50.830;12.834;2023-03-25T01:09:12;96551.03;;;10.07;66.25
22181;BME280;11256;50.830;12.834;2023-03-25T01:14:16;96539.13;;;10.08;66.24
22181;BME280;11256;50.830;12.834;2023-03-25T01:19:17;96537.03;;;10.05;66.50
22181;BME280;11256;50.830;12.834;2023-03-25T01:24:17;96524.22;;;9.97;66.54
22181;BME280;11256;50.830;12.834;2023-03-25T01:29:19;96528.78;;;10.10;66.67
22181;BME280;11256;50.830;12.834;2023-03-25T01:34:19;96528.78;;;10.10;66.61
22181;BME280;11256;50.830;12.834;2023-03-25T01:39:21;96534.88;;;10.15;67.05
22181;BME280;11256;50.830;12.834;2023-03-25T01:49:26;96524.16;;;10.24;67.49
22181;BME280;11256;50.830;12.834;2023-03-25T01:54:29;96505.50;;;10.22;68.30
22181;BME280;11256;50.830;12.834;2023-03-25T01:59:30;96498.66;;;10.25;68.04
22181;BME280;11256;50.830;12.834;2023-03-25T02:04:45;96483.03;;;10.22;68.07
22181;BME280;11256;50.830;12.834;2023-03-25T02:09:50;96495.84;;;10.30;68.46
22181;BME280;11256;50.830;12.834;2023-03-25T02:14:51;96493.56;;;10.23;68.35
22181;BME280;11256;50.830;12.834;2023-03-25T02:20:35;96486.09;;;10.29;68.22
22181;BME280;11256;50.830;12.834;2023-03-25T02:36:59;96488.09;;;10.15;67.84
22181;BME280;11256;50.830;12.834;2023-03-25T02:42:14;96474.84;;;10.13;68.38
22181;BME280;11256;50.830;12.834;2023-03-25T02:47:18;96476.25;;;10.11;68.01
22181;BME280;11256;50.830;12.834;2023-03-25T02:52:27;96460.66;;;9.94;68.47
22181;BME280;11256;50.830;12.834;2023-03-25T02:57:31;96474.88;;;10.00;68.17
22181;BME280;11256;50.830;12.834;2023-03-25T03:02:35;96471.03;;;10.01;68.25
22181;BME280;11256;50.830;12.834;2023-03-25T03:07:38;96466.25;;;9.98;68.18
22181;BME280;11256;50.830;12.834;2023-03-25T03:13:02;96463.03;;;9.96;67.80
22181;BME280;11256;50.830;12.834;2023-03-25T03:18:19;96475.97;;;9.99;67.99
22181;BME280;11256;50.830;12.834;2023-03-25T03:23:34;96470.09;;;9.97;67.91
22181;BME280;11256;50.830;12.834;2023-03-25T03:29:06;96477.56;;;10.00;68.25
22181;BME280;11256;50.830;12.834;2023-03-25T03:34:31;96465.19;;;9.85;68.10
22181;BME280;11256;50.830;12.834;2023-03-25T03:39:35;96485.69;;;10.00;68.16
22181;BME280;11256;50.830;12.834;2023-03-25T03:44:38;96481.69;;;9.97;68.05
22181;BME280;11256;50.830;12.834;2023-03-25T03:49:46;96475.72;;;9.87;68.10
22181;BME280;11256;50.830;12.834;2023-03-25T03:54:57;96490.09;;;9.96;67.57
22181;BME280;11256;50.830;12.834;2023-03-25T04:00:04;96495.72;;;9.99;68.00
22181;BME280;11256;50.830;12.834;2023-03-25T04:05:15;96481.91;;;9.87;68.35
22181;BME280;11256;50.830;12.834;2023-03-25T04:10:32;96493.94;;;9.95;68.43
22181;BME280;11256;50.830;12.834;2023-03-25T04:15:39;96488.00;;;9.71;69.66
22181;BME280;11256;50.830;12.834;2023-03-25T04:20:40;96486.03;;;9.85;69.50
22181;BME280;11256;50.830;12.834;2023-03-25T04:25:44;96502.38;;;9.80;70.60
22181;BME280;11256;50.830;12.834;2023-03-25T04:30:49;96487.47;;;9.69;70.57
22181;BME280;11256;50.830;12.834;2023-03-25T04:35:54;96490.09;;;9.60;71.19
22181;BME280;11256;50.830;12.834;2023-03-25T04:40:54;96509.63;;;9.71;70.69
22181;BME280;11256;50.830;12.834;2023-03-25T04:45:55;96517.22;;;9.69;70.29
22181;BME280;11256;50.830;12.834;2023-03-25T04:50:57;96505.53;;;9.60;69.96
22181;BME280;11256;50.830;12.834;2023-03-25T04:55:58;96485.03;;;9.45;69.47
22181;BME280;11256;50.830;12.834;2023-03-25T05:00:59;96523.84;;;9.63;68.88
22181;BME280;11256;50.830;12.834;2023-03-25T05:06:05;96529.25;;;9.63;68.67
22181;BME280;11256;50.830;12.834;2023-03-25T05:11:06;96542.28;;;9.61;68.95
22181;BME280;11256;50.830;12.834;2023-03-25T05:16:07;96529.78;;;9.38;69.70
22181;BME280;11256;50.830;12.834;2023-03-25T05:21:07;96523.66;;;9.46;69.02
22181;BME280;11256;50.830;12.834;2023-03-25T05:26:08;96516.69;;;9.31;69.25
22181;BME280;11256;50.830;12.834;2023-03-25T05:31:08;96541.19;;;9.35;68.97
22181;BME280;11256;50.830;12.834;2023-03-25T05:36:10;96534.09;;;9.25;68.89
22181;BME280;11256;50.830;12.834;2023-03-25T05:41:12;96562.91;;;9.30;68.83
22181;BME280;11256;50.830;12.834;2023-03-25T05:46:17;96565.44;;;9.40;69.01
22181;BME280;11256;50.830;12.834;2023-03-25T05:51:24;96562.91;;;9.57;69.04
22181;BME280;11256;50.830;12.834;2023-03-25T05:56:24;96572.72;;;9.80;68.38
22181;BME280;11256;50.830;12.834;2023-03-25T06:01:25;96572.50;;;9.90;68.58
22181;BME280;11256;50.830;12.834;2023-03-25T06:06:26;96554.06;;;10.05;67.46
22181;BME280;11256;50.830;12.834;2023-03-25T06:11:27;96547.50;;;10.20;68.00
22181;BME280;11256;50.830;12.834;2023-03-25T06:16:29;96553.44;;;10.44;66.95
22181;BME280;11256;50.830;12.834;2023-03-25T06:21:33;96542.84;;;10.56;67.07
22181;BME280;11256;50.830;12.834;2023-03-25T06:26:33;96538.16;;;10.92;66.66
22181;BME280;11256;50.830;12.834;2023-03-25T06:31:34;96551.94;;;11.43;66.36
22181;BME280;11256;50.830;12.834;2023-03-25T06:36:35;96550.59;;;11.62;65.24
22181;BME280;11256;50.830;12.834;2023-03-25T06:41:35;96536.72;;;11.64;64.31
22181;BME280;11256;50.830;12.834;2023-03-25T06:46:52;96553.00;;;11.64;63.99
22181;BME280;11256;50.830;12.834;2023-03-25T06:52:04;96554.47;;;11.39;63.77
22181;BME280;11256;50.830;12.834;2023-03-25T06:57:04;96564.31;;;11.27;63.42
22181;BME280;11256;50.830;12.834;2023-03-25T07:02:05;96556.59;;;11.12;63.88
22181;BME280;11256;50.830;12.834;2023-03-25T07:07:07;96567.09;;;11.13;64.00
22181;BME280;11256;50.830;12.834;2023-03-25T07:12:08;96560.06;;;11.04;64.34
22181;BME280;11256;50.830;12.834;2023-03-25T07:17:08;96574.25;;;11.01;64.73
22181;BME280;11256;50.830;12.834;2023-03-25T07:22:09;96554.53;;;10.87;65.13
22181;BME280;11256;50.830;12.834;2023-03-25T07:27:13;96577.38;;;10.94;65.65
22181;BME280;11256;50.830;12.834;2023-03-25T07:32:19;96578.78;;;10.92;66.18
22181;BME280;11256;50.830;12.834;2023-03-25T07:37:19;96588.78;;;10.83;65.78
22181;BME280;11256;50.830;12.834;2023-03-25T07:42:19;96595.94;;;10.79;66.34
22181;BME280;11256;50.830;12.834;2023-03-25T07:47:46;96595.66;;;10.67;66.62
22181;BME280;11256;50.830;12.834;2023-03-25T07:52:49;96601.72;;;10.64;67.04
22181;BME280;11256;50.830;12.834;2023-03-25T07:57:49;96588.16;;;10.42;67.68
22181;BME280;11256;50.830;12.834;2023-03-25T08:02:50;96599.84;;;10.51;67.48
22181;BME280;11256;50.830;12.834;2023-03-25T08:07:51;96597.28;;;10.46;67.48
22181;BME280;11256;50.830;12.834;2023-03-25T08:12:52;96611.41;;;10.43;68.07
22181;BME280;11256;50.830;12.834;2023-03-25T08:17:52;96608.22;;;10.41;67.82
22181;BME280;11256;50.830;12.834;2023-03-25T08:22:53;96617.31;;;10.45;67.79
22181;BME280;11256;50.830;12.834;2023-03-25T08:27:54;96601.19;;;10.40;67.95
22181;BME280;11256;50.830;12.834;2023-03-25T08:32:54;96611.03;;;10.36;67.62
22181;BME280;11256;50.830;12.834;2023-03-25T08:37:54;96611.91;;;10.45;68.35
22181;BME280;11256;50.830;12.834;2023-03-25T08:42:55;96572.88;;;10.24;68.39
22181;BME280;11256;50.830;12.834;2023-03-25T08:47:55;96621.69;;;10.32;68.73
22181;BME280;11256;50.830;12.834;2023-03-25T08:52:56;96613.16;;;10.25;70.43
22181;BME280;11256;50.830;12.834;2023-03-25T08:58:01;96628.50;;;10.30;69.40
22181;BME280;11256;50.830;12.834;2023-03-25T09:03:02;96627.28;;;10.36;68.88
22181;BME280;11256;50.830;12.834;2023-03-25T09:08:03;96634.31;;;10.37;68.86
22181;BME280;11256;50.830;12.834;2023-03-25T09:13:03;96612.94;;;10.35;69.22
22181;BME280;11256;50.830;12.834;2023-03-25T09:18:04;96630.03;;;10.58;68.86
22181;BME280;11256;50.830;12.834;2023-03-25T09:23:04;96625.16;;;10.68;68.48
22181;BME280;11256;50.830;12.834;2023-03-25T09:28:05;96625.22;;;10.77;68.51
22181;BME280;11256;50.830;12.834;2023-03-25T09:33:05;96602.06;;;10.93;68.54
22181;BME280;11256;50.830;12.834;2023-03-25T09:38:06;96625.66;;;11.14;67.21
22181;BME280;11256;50.830;12.834;2023-03-25T09:43:28;96639.75;;;11.25;68.31
22181;BME280;11256;50.830;12.834;2023-03-25T09:48:41;96631.38;;;11.35;67.41
22181;BME280;11256;50.830;12.834;2023-03-25T09:59:22;96635.63;;;11.58;65.93
22181;BME280;11256;50.830;12.834;2023-03-25T10:04:45;96623.19;;;11.57;64.96
22181;BME280;11256;50.830;12.834;2023-03-25T10:15:16;96628.88;;;11.47;64.32
22181;BME280;11256;50.830;12.834;2023-03-25T10:20:41;96626.03;;;11.52;64.59
22181;BME280;11256;50.830;12.834;2023-03-25T10:25:44;96616.75;;;11.53;63.88
22181;BME280;11256;50.830;12.834;2023-03-25T10:30:50;96622.06;;;11.58;63.69
22181;BME280;11256;50.830;12.834;2023-03-25T10:35:53;96613.69;;;11.68;63.62
22181;BME280;11256;50.830;12.834;2023-03-25T10:41:33;96617.56;;;11.84;61.76
22181;BME280;11256;50.830;12.834;2023-03-25T10:46:44;96611.88;;;12.02;63.45
22181;BME280;11256;50.830;12.834;2023-03-25T10:51:50;96608.88;;;12.12;61.92
22181;BME280;11256;50.830;12.834;2023-03-25T10:56:55;96615.09;;;12.21;61.27
22181;BME280;11256;50.830;12.834;2023-03-25T11:01:58;96614.63;;;12.28;61.88
22181;BME280;11256;50.830;12.834;2023-03-25T11:06:59;96616.25;;;12.37;61.30
22181;BME280;11256;50.830;12.834;2023-03-25T11:12:01;96603.63;;;12.41;61.69
22181;BME280;11256;50.830;12.834;2023-03-25T11:17:04;96607.94;;;12.59;60.60
22181;BME280;11256;50.830;12.834;2023-03-25T11:22:14;96577.44;;;12.71;61.09
22181;BME280;11256;50.830;12.834;2023-03-25T11:27:18;96593.41;;;12.98;60.50
22181;BME280;11256;50.830;12.834;2023-03-25T11:32:34;96565.22;;;13.11;59.99
22181;BME280;11256;50.830;12.834;2023-03-25T11:37:46;96561.81;;;13.31;60.20
22181;BME280;11256;50.830;12.834;2023-03-25T11:42:55;96553.00;;;13.34;59.62
22181;BME280;11256;50.830;12.834;2023-03-25T11:48:07;96553.28;;;13.78;58.82
22181;BME280;11256;50.830;12.834;2023-03-25T11:53:13;96546.53;;;13.84;58.37
22181;BME280;11256;50.830;12.834;2023-03-25T11:58:17;96568.06;;;13.98;57.05
22181;BME280;11256;50.830;12.834;2023-03-25T12:03:21;96571.81;;;14.14;57.99
22181;BME280;11256;50.830;12.834;2023-03-25T12:08:50;96557.44;;;14.05;56.85
22181;BME280;11256;50.830;12.834;2023-03-25T12:19:43;96534.78;;;14.21;57.39
22181;BME280;11256;50.830;12.834;2023-03-25T12:25:15;96531.47;;;14.36;57.37
22181;BME280;11256;50.830;12.834;2023-03-25T12:41:30;96509.56;;;14.65;56.69
22181;BME280;11256;50.830;12.834;2023-03-25T12:53:13;96504.56;;;15.00;55.62
22181;BME280;11256;50.830;12.834;2023-03-25T13:03:52;96485.94;;;15.14;54.83
22181;BME280;11256;50.830;12.834;2023-03-25T13:09:02;96490.84;;;15.20;55.55
22181;BME280;11256;50.830;12.834;2023-03-25T13:14:20;96475.38;;;15.24;54.86
22181;BME280;11256;50.830;12.834;2023-03-25T13:19:24;96469.75;;;15.41;54.72
22181;BME280;11256;50.830;12.834;2023-03-25T13:24:50;96460.78;;;15.53;53.21
22181;BME280;11256;50.830;12.834;2023-03-25T13:29:55;96452.34;;;15.58;52.38
22181;BME280;11256;50.830;12.834;2023-03-25T13:35:07;96458.69;;;15.86;53.78
22181;BME280;11256;50.830;12.834;2023-03-25T13:41:10;96467.78;;;16.29;50.86
22181;BME280;11256;50.830;12.834;2023-03-25T13:46:11;96486.16;;;16.29;50.39
22181;BME280;11256;50.830;12.834;2023-03-25T13:51:13;96523.78;;;16.08;54.32
22181;BME280;11256;50.830;12.834;2023-03-25T13:56:27;96559.31;;;15.84;54.13
22181;BME280;11256;50.830;12.834;2023-03-25T14:01:44;96564.50;;;15.41;52.64
22181;BME280;11256;50.830;12.834;2023-03-25T14:07:07;96542.56;;;15.05;52.95
22181;BME280;11256;50.830;12.834;2023-03-25T14:12:19;96546.59;;;14.87;53.61
22181;BME280;11256;50.830;12.834;2023-03-25T14:17:23;96548.34;;;14.71;53.70
22181;BME280;11256;50.830;12.834;2023-03-25T14:22:29;96544.44;;;14.60;54.32
22181;BME280;11256;50.830;12.834;2023-03-25T14:27:34;96555.75;;;14.50;53.38
22181;BME280;11256;50.830;12.834;2023-03-25T14:32:38;96561.31;;;14.33;53.74
22181;BME280;11256;50.830;12.834;2023-03-25T14:37:39;96544.59;;;14.14;53.13
22181;BME280;11256;50.830;12.834;2023-03-25T14:42:42;96556.81;;;14.08;52.85
22181;BME280;11256;50.830;12.834;2023-03-25T14:47:55;96565.66;;;13.96;53.07
22181;BME280;11256;50.830;12.834;2023-03-25T14:53:00;96562.53;;;13.86;53.72
22181;BME280;11256;50.830;12.834;2023-03-25T14:58:10;96567.84;;;13.82;53.92
22181;BME280;11256;50.830;12.834;2023-03-25T15:03:16;96543.28;;;13.62;53.78
22181;BME280;11256;50.830;12.834;2023-03-25T15:08:23;96543.09;;;13.67;53.97
22181;BME280;11256;50.830;12.834;2023-03-25T15:13:32;96538.81;;;13.57;54.45
22181;BME280;11256;50.830;12.834;2023-03-25T15:34:43;96507.28;;;13.19;54.13
22181;BME280;11256;50.830;12.834;2023-03-25T15:56:15;96541.97;;;13.30;54.02
22181;BME280;11256;50.830;12.834;2023-03-25T16:01:26;96538.94;;;13.32;54.12
22181;BME280;11256;50.830;12.834;2023-03-25T16:06:28;96543.75;;;13.26;54.26
22181;BME280;11256;50.830;12.834;2023-03-25T16:11:30;96533.81;;;13.30;54.35
22181;BME280;11256;50.830;12.834;2023-03-25T16:16:32;96535.25;;;13.28;54.48
22181;BME280;11256;50.830;12.834;2023-03-25T16:21:35;96511.78;;;13.15;54.40
22181;BME280;11256;50.830;12.834;2023-03-25T16:26:41;96514.78;;;13.22;54.38
22181;BME280;11256;50.830;12.834;2023-03-25T16:32:00;96516.56;;;13.18;54.76
22181;BME280;11256;50.830;12.834;2023-03-25T16:37:01;96518.53;;;13.09;54.57
22181;BME280;11256;50.830;12.834;2023-03-25T16:42:04;96524.59;;;13.06;55.07
22181;BME280;11256;50.830;12.834;2023-03-25T16:47:06;96513.88;;;13.01;55.13
22181;BME280;11256;50.830;12.834;2023-03-25T16:52:12;96510.56;;;12.87;55.04
22181;BME280;11256;50.830;12.834;2023-03-25T16:57:47;96520.94;;;12.85;55.46
22181;BME280;11256;50.830;12.834;2023-03-25T17:02:48;96520.31;;;12.79;55.34
22181;BME280;11256;50.830;12.834;2023-03-25T17:07:59;96515.06;;;12.66;55.57
22181;BME280;11256;50.830;12.834;2023-03-25T17:13:08;96512.38;;;12.49;55.31
22181;BME280;11256;50.830;12.834;2023-03-25T17:18:12;96522.44;;;12.40;55.66
22181;BME280;11256;50.830;12.834;2023-03-25T17:23:25;96538.75;;;12.23;55.91
22181;BME280;11256;50.830;12.834;2023-03-25T17:28:44;96531.72;;;12.05;55.94
22181;BME280;11256;50.830;12.834;2023-03-25T17:39:03;96538.53;;;11.85;55.99
22181;BME280;11256;50.830;12.834;2023-03-25T17:44:05;96529.91;;;11.83;56.48
22181;BME280;11256;50.830;12.834;2023-03-25T17:49:13;96554.03;;;11.85;56.46
22181;BME280;11256;50.830;12.834;2023-03-25T17:54:14;96551.28;;;11.76;56.83
22181;BME280;11256;50.830;12.834;2023-03-25T17:59:17;96538.59;;;11.55;57.19
22181;BME280;11256;50.830;12.834;2023-03-25T18:04:18;96566.81;;;11.54;57.72
22181;BME280;11256;50.830;12.834;2023-03-25T18:09:23;96589.91;;;11.43;57.50
22181;BME280;11256;50.830;12.834;2023-03-25T18:14:24;96573.78;;;11.38;58.35
22181;BME280;11256;50.830;12.834;2023-03-25T18:19:26;96577.13;;;11.35;59.28
22181;BME280;11256;50.830;12.834;2023-03-25T18:24:29;96571.97;;;11.25;59.37
22181;BME280;11256;50.830;12.834;2023-03-25T18:29:30;96580.56;;;11.27;59.74
22181;BME280;11256;50.830;12.834;2023-03-25T18:34:30;96577.03;;;11.18;59.61
22181;BME280;11256;50.830;12.834;2023-03-25T18:39:30;96595.91;;;11.23;59.68
22181;BME280;11256;50.830;12.834;2023-03-25T18:44:31;96583.03;;;11.06;59.89
22181;BME280;11256;50.830;12.834;2023-03-25T18:49:31;96592.56;;;11.04;59.40
22181;BME280;11256;50.830;12.834;2023-03-25T18:54:31;96583.69;;;10.81;60.04
22181;BME280;11256;50.830;12.834;2023-03-25T18:59:32;96606.50;;;10.89;59.94
22181;BME280;11256;50.830;12.834;2023-03-25T19:04:32;96599.31;;;10.84;60.04
22181;BME280;11256;50.830;12.834;2023-03-25T19:09:35;96601.84;;;10.81;60.04
22181;BME280;11256;50.830;12.834;2023-03-25T19:14:35;96600.13;;;10.85;60.04
22181;BME280;11256;50.830;12.834;2023-03-25T19:19:35;96618.59;;;10.83;59.78
22181;BME280;11256;50.830;12.834;2023-03-25T19:24:37;96703.47;;;10.92;60.81
22181;BME280;11256;50.830;12.834;2023-03-25T19:29:37;96645.19;;;10.81;61.68
22181;BME280;11256;50.830;12.834;2023-03-25T19:34:38;96638.66;;;10.82;61.65
22181;BME280;11256;50.830;12.834;2023-03-25T19:39:38;96619.03;;;10.76;61.60
22181;BME280;11256;50.830;12.834;2023-03-25T19:44:39;96595.53;;;10.72;61.54
22181;BME280;11256;50.830;12.834;2023-03-25T19:49:40;96601.78;;;10.72;62.13
22181;BME280;11256;50.830;12.834;2023-03-25T19:54:41;96597.06;;;10.64;62.16
22181;BME280;11256;50.830;12.834;2023-03-25T19:59:41;96595.78;;;10.62;62.24
22181;BME280;11256;50.830;12.834;2023-03-25T20:04:43;96588.53;;;10.49;61.77
22181;BME280;11256;50.830;12.834;2023-03-25T20:09:43;96605.66;;;10.58;61.85
22181;BME280;11256;50.830;12.834;2023-03-25T20:14:44;96609.25;;;10.53;62.09
22181;BME280;11256;50.830;12.834;2023-03-25T20:19:45;96591.53;;;10.47;62.31
22181;BME280;11256;50.830;12.834;2023-03-25T20:24:45;96605.88;;;10.48;62.28
22181;BME280;11256;50.830;12.834;2023-03-25T20:29:46;96603.06;;;10.53;62.67
22181;BME280;11256;50.830;12.834;2023-03-25T20:34:48;96594.88;;;10.44;62.66
22181;BME280;11256;50.830;12.834;2023-03-25T20:39:48;96609.06;;;10.50;63.09
22181;BME280;11256;50.830;12.834;2023-03-25T20:44:48;96606.47;;;10.45;62.91
22181;BME280;11256;50.830;12.834;2023-03-25T20:49:49;96592.47;;;10.43;63.43
22181;BME280;11256;50.830;12.834;2023-03-25T20:54:49;96587.47;;;10.36;63.20
22181;BME280;11256;50.830;12.834;2023-03-25T20:59:49;96592.09;;;10.36;62.92
22181;BME280;11256;50.830;12.834;2023-03-25T21:04:53;96589.72;;;10.21;62.93
22181;BME280;11256;50.830;12.834;2023-03-25T21:09:56;96575.19;;;10.17;63.31
22181;BME280;11256;50.830;12.834;2023-03-25T21:14:57;96602.31;;;10.25;63.03
22181;BME280;11256;50.830;12.834;2023-03-25T21:19:57;96616.97;;;10.24;63.39
22181;BME280;11256;50.830;12.834;2023-03-25T21:24:58;96622.88;;;10.26;63.61
22181;BME280;11256;50.830;12.834;2023-03-25T21:29:58;96612.88;;;10.27;63.57
22181;BME280;11256;50.830;12.834;2023-03-25T21:34:59;96627.31;;;10.22;63.39
22181;BME280;11256;50.830;12.834;2023-03-25T21:39:59;96616.31;;;10.19;63.79
22181;BME280;11256;50.830;12.834;2023-03-25T21:44:59;96620.72;;;10.15;63.54
22181;BME280;11256;50.830;12.834;2023-03-25T21:50:02;96622.59;;;10.01;64.46
22181;BME280;11256;50.830;12.834;2023-03-25T21:55:05;96620.50;;;9.98;64.02
22181;BME280;11256;50.830;12.834;2023-03-25T22:00:07;96615.97;;;9.93;64.47
22181;BME280;11256;50.830;12.834;2023-03-25T22:05:13;96617.19;;;10.01;64.19
22181;BME280;11256;50.830;12.834;2023-03-25T22:10:14;96605.38;;;9.97;64.83
22181;BME280;11256;50.830;12.834;2023-03-25T22:15:14;96606.78;;;9.94;64.52
22181;BME280;11256;50.830;12.834;2023-03-25T22:20:15;96581.31;;;9.95;64.65
22181;BME280;11256;50.830;12.834;2023-03-25T22:25:15;96585.44;;;9.93;64.24
22181;BME280;11256;50.830;12.834;2023-03-25T22:30:16;96572.94;;;9.83;64.20
22181;BME280;11256;50.830;12.834;2023-03-25T22:35:16;96553.41;;;9.73;65.00
22181;BME280;11256;50.830;12.834;2023-03-25T22:40:17;96585.94;;;9.81;64.88
22181;BME280;11256;50.830;12.834;2023-03-25T22:45:18;96598.16;;;9.79;64.70
22181;BME280;11256;50.830;12.834;2023-03-25T22:50:18;96589.97;;;9.70;64.81
22181;BME280;11256;50.830;12.834;2023-03-25T22:55:18;96602.38;;;9.71;64.66
22181;BME280;11256;50.830;12.834;2023-03-25T23:00:24;96600.97;;;9.74;65.16
22181;BME280;11256;50.830;12.834;2023-03-25T23:05:24;96593.56;;;9.52;64.95
22181;BME280;11256;50.830;12.834;2023-03-25T23:10:25;96602.59;;;9.61;65.86
22181;BME280;11256;50.830;12.834;2023-03-25T23:15:25;96595.56;;;9.47;65.57
22181;BME280;11256;50.830;12.834;2023-03-25T23:20:29;96614.72;;;9.50;65.63
22181;BME280;11256;50.830;12.834;2023-03-25T23:25:30;96632.03;;;9.49;65.89
22181;BME280;11256;50.830;12.834;2023-03-25T23:30:31;96624.72;;;9.50;65.63
22181;BME280;11256;50.830;12.834;2023-03-25T23:35:31;96628.00;;;9.47;65.59
22181;BME280;11256;50.830;12.834;2023-03-25T23:40:31;96621.63;;;9.43;66.01
22181;BME280;11256;50.830;12.834;2023-03-25T23:45:31;96629.81;;;9.38;65.87
22181;BME280;11256;50.830;12.834;2023-03-25T23:50:32;96607.97;;;9.21;65.74
22181;BME280;11256;50.830;12.834;2023-03-25T23:55:33;96616.00;;;9.26;65.84
